CheckWX is a tool to help pilots better visualize weather data.  It is not intended as a substitute for an official pre-flight weather briefing.

02:52:39 UTC

HTDA METAR
Julius Nyerere International Airport
Dar es Salaam, Tanzania
Current

53 mins ago

HTDA 230200Z 00000KT 9999 SCT012 22/21 Q1016 NOSIG
Observed
Sep-23 @ 02:00 UTC
Visibility
10,000+ meters
Flight Rules
VFR
Cloud Levels
  • Scattered at 1,200' AGL
Temperature
22°C / 72°F
Dewpoint
21°C / 70°F
Humidity
94%
Altimeter
30" Hg
Pressure
1015.92 hPa
Previous

2 hours ago

HTDA 230100Z 00000KT 9999 SCT012 23/21 Q1015 NOSIG
Observed
Sep-23 @ 01:00 UTC
Visibility
10,000+ meters
Flight Rules
VFR
Cloud Levels
  • Scattered at 1,200' AGL
Temperature
23°C / 73°F
Dewpoint
21°C / 70°F
Humidity
89%
Altimeter
29.97" Hg
Pressure
1014.92 hPa
Previous

3 hours ago

HTDA 230000Z 00000KT 9999 SCT012 22/21 Q1015 NOSIG
Observed
Sep-23 @ 00:00 UTC
Visibility
10,000+ meters
Flight Rules
VFR
Cloud Levels
  • Scattered at 1,200' AGL
Temperature
22°C / 72°F
Dewpoint
21°C / 70°F
Humidity
94%
Altimeter
29.97" Hg
Pressure
1014.92 hPa